Terminal Aerodrome Forecast
Issued by NWS Sioux Falls, SD

Home | Current Version | Previous Version | Graphics & Text | Print | Product List | Glossary On
Versions: 1 2 3 4 5 6 7 8 9 10 11 12 13 14 15
000
FTUS43 KFSD 282321
TAFFSD
TAF
KFSD 282321Z 0100/0124 19011KT P6SM BKN045
     FM010200 19007KT P6SM SCT060
     FM010900 28004KT P6SM BKN120
     FM011900 29012KT P6SM SCT150=

USA.gov is the U.S. government's official web portal to all federal, state and local government web resources and services.